Time;durP1;ratioP1;P1;durP2;ratioP2;P2;SDS_P1;SDS_P2;PMS_P1;PMS_P2;Temp;Humidity;BMP_temperature;BMP_pressure;BME280_temperature;BME280_humidity;BME280_pressure;Samples;Min_cycle;Max_cycle;Signal;HPM_P1;HPM_P2
2021/11/26 00:00:58;;;;;;;;;;;;;;;17.38;60.22;100946.19;5075899;28;1578;-65
2021/11/26 00:03:24;;;;;;;;;;;;;;;17.39;60.24;100935.38;5067479;28;1563;-65
2021/11/26 00:05:51;;;;;;;;;;;;;;;17.40;60.06;100934.38;5077144;28;1008;-65
2021/11/26 00:08:18;;;;;;;;;;;;;;;17.39;59.99;100950.53;5075438;28;1444;-73
2021/11/26 00:10:44;;;;;;;;;;;;;;;17.38;59.57;100946.19;5075972;28;1423;-66
2021/11/26 00:13:13;;;;;;;;;;;;;;;17.36;60.08;100940.09;5067525;28;1905;-73
2021/11/26 00:15:40;;;;;;;;;;;;;;;17.39;60.00;100953.22;5076091;28;1314;-73
2021/11/26 00:18:10;;;;;;;;;;;;;;;17.36;60.37;100940.94;5065596;28;1334;-71
2021/11/26 00:20:37;;;;;;;;;;;;;;;17.36;60.32;100929.41;5074950;28;1702;-65
2021/11/26 00:23:04;;;;;;;;;;;;;;;17.35;60.09;100930.38;5067053;28;1568;-66
2021/11/26 00:25:31;;;;;;;;;;;;;;;17.35;59.82;100935.72;5075433;28;1441;-65
2021/11/26 00:27:58;;;;;;;;;;;;;;;17.33;60.27;100935.88;5075600;28;1654;-72
2021/11/26 00:30:26;;;;;;;;;;;;;;;17.32;60.19;100934.16;5070655;28;1567;-73
2021/11/26 00:32:52;;;;;;;;;;;;;;;17.34;60.23;100942.06;5064823;28;1980;-73
2021/11/26 00:35:19;;;;;;;;;;;;;;;17.32;59.85;100933.31;5076029;28;1107;-65
2021/11/26 00:37:45;;;;;;;;;;;;;;;17.29;59.70;100921.88;5075328;28;1710;-65
2021/11/26 00:40:12;;;;;;;;;;;;;;;17.30;59.88;100925.41;5069933;28;1398;-72
2021/11/26 00:42:41;;;;;;;;;;;;;;;17.29;60.19;100919.22;5075414;28;1630;-73
2021/11/26 00:45:08;;;;;;;;;;;;;;;17.30;60.03;100920.06;5072943;28;1358;-65
2021/11/26 00:47:36;;;;;;;;;;;;;;;17.31;59.67;100919.09;5074918;28;1290;-65
2021/11/26 00:50:03;;;;;;;;;;;;;;;17.29;59.88;100927.22;5075577;28;1754;-73
2021/11/26 00:52:30;;;;;;;;;;;;;;;17.29;59.44;100916.53;5074496;28;1981;-65
2021/11/26 00:54:56;;;;;;;;;;;;;;;17.29;59.97;100908.53;5075491;28;1512;-65
2021/11/26 00:57:23;;;;;;;;;;;;;;;17.27;60.07;100898.94;5066144;28;1223;-66
2021/11/26 00:59:49;;;;;;;;;;;;;;;17.25;59.73;100893.69;5074659;28;1503;-73
2021/11/26 01:02:16;;;;;;;;;;;;;;;17.25;59.67;100895.53;5072492;28;1539;-72
2021/11/26 01:04:44;;;;;;;;;;;;;;;17.27;59.88;100888.25;5074846;28;1753;-65
2021/11/26 01:07:11;;;;;;;;;;;;;;;17.26;59.85;100878.50;5074340;28;1365;-73
2021/11/26 01:09:37;;;;;;;;;;;;;;;17.20;59.49;100869.16;5075320;28;1035;-65
2021/11/26 01:12:04;;;;;;;;;;;;;;;17.22;59.34;100869.88;5074028;28;1709;-72
2021/11/26 01:14:31;;;;;;;;;;;;;;;17.25;59.92;100871.47;5074481;28;1973;-66
2021/11/26 01:16:57;;;;;;;;;;;;;;;17.21;59.64;100853.94;5073765;28;1263;-66
2021/11/26 01:19:24;;;;;;;;;;;;;;;17.23;59.36;100854.69;5074686;28;1520;-72
2021/11/26 01:21:52;;;;;;;;;;;;;;;17.22;59.25;100850.31;5063857;28;1658;-74
2021/11/26 01:24:18;;;;;;;;;;;;;;;17.20;59.50;100844.25;5067436;28;1762;-72
2021/11/26 01:26:45;;;;;;;;;;;;;;;17.20;59.32;100845.09;5068956;28;1674;-65
2021/11/26 01:29:11;;;;;;;;;;;;;;;17.21;59.10;100843.25;5074463;28;1675;-66
2021/11/26 01:31:39;;;;;;;;;;;;;;;17.20;59.26;100849.59;5068020;28;1437;-72
2021/11/26 01:34:08;;;;;;;;;;;;;;;17.17;59.32;100828.44;5074842;28;1980;-72
2021/11/26 01:36:34;;;;;;;;;;;;;;;17.21;59.38;100829.91;5074651;28;1456;-73
2021/11/26 01:39:03;;;;;;;;;;;;;;;17.21;59.49;100819.22;5074340;28;1575;-66
2021/11/26 01:41:30;;;;;;;;;;;;;;;17.19;59.22;100810.47;5073014;28;1246;-76
2021/11/26 01:43:56;;;;;;;;;;;;;;;17.19;59.35;100811.34;5074206;28;1134;-66
2021/11/26 01:46:23;;;;;;;;;;;;;;;17.18;59.40;100809.63;5065649;28;1449;-72
2021/11/26 01:48:49;;;;;;;;;;;;;;;17.18;59.51;100798.09;5072741;28;1650;-66
2021/11/26 01:51:16;;;;;;;;;;;;;;;17.17;59.67;100801.72;5070186;28;1582;-73
2021/11/26 01:53:43;;;;;;;;;;;;;;;17.17;59.18;100807.94;5069419;28;1922;-73
2021/11/26 01:56:11;;;;;;;;;;;;;;;17.15;59.50;100795.66;5073246;28;1508;-65
2021/11/26 01:58:38;;;;;;;;;;;;;;;17.16;59.28;100808.06;5070178;28;1630;-72
2021/11/26 02:01:05;;;;;;;;;;;;;;;17.13;59.17;100800.28;5061796;28;1521;-72
2021/11/26 02:03:32;;;;;;;;;;;;;;;17.14;59.19;100812.69;5068731;28;1628;-73
2021/11/26 02:05:58;;;;;;;;;;;;;;;17.12;59.17;100802.09;5071627;28;1469;-72
2021/11/26 02:08:25;;;;;;;;;;;;;;;17.13;59.27;100786.91;5074399;28;1626;-72
2021/11/26 02:10:52;;;;;;;;;;;;;;;17.16;59.15;100794.69;5070937;28;1745;-72
2021/11/26 02:13:20;;;;;;;;;;;;;;;17.11;59.49;100781.72;5074139;28;1981;-66
2021/11/26 02:15:48;;;;;;;;;;;;;;;17.14;59.33;100793.97;5069981;28;1247;-72
2021/11/26 02:18:15;;;;;;;;;;;;;;;17.15;59.52;100787.63;5075158;28;962;-72
2021/11/26 02:20:44;;;;;;;;;;;;;;;17.14;59.42;100791.31;5073073;28;1694;-65
2021/11/26 02:23:10;;;;;;;;;;;;;;;17.08;59.41;100785.47;5064067;28;1709;-72
2021/11/26 02:25:37;;;;;;;;;;;;;;;17.13;59.34;100789.59;5068768;28;1554;-66
2021/11/26 02:28:06;;;;;;;;;;;;;;;17.12;59.20;100777.22;5074270;28;1031;-72
2021/11/26 02:30:32;;;;;;;;;;;;;;;17.09;58.98;100770.31;5068132;28;1535;-72
2021/11/26 02:33:00;;;;;;;;;;;;;;;17.08;58.90;100769.44;5072009;28;1905;-72
2021/11/26 02:35:27;;;;;;;;;;;;;;;17.08;59.22;100761.41;5073836;28;1838;-66
2021/11/26 02:37:56;;;;;;;;;;;;;;;17.08;58.93;100756.06;5074129;28;1622;-66
2021/11/26 02:40:23;;;;;;;;;;;;;;;17.08;58.72;100769.44;5074759;28;987;-76
2021/11/26 02:42:50;;;;;;;;;;;;;;;17.05;59.07;100750.13;5072714;28;1745;-73
2021/11/26 02:45:18;;;;;;;;;;;;;;;17.05;58.85;100759.00;5077748;28;1638;-66
2021/11/26 02:47:45;;;;;;;;;;;;;;;17.04;58.86;100745.75;5077243;28;1582;-66
2021/11/26 02:50:12;;;;;;;;;;;;;;;17.06;58.89;100747.34;5076569;28;1314;-66
2021/11/26 02:52:39;;;;;;;;;;;;;;;17.05;59.07;100751.00;5076836;28;1710;-66
2021/11/26 02:55:10;;;;;;;;;;;;;;;17.07;58.80;100753.53;5077161;28;1898;-65
2021/11/26 02:57:37;;;;;;;;;;;;;;;17.07;58.71;100741.03;5075692;28;1326;-66
2021/11/26 03:00:04;;;;;;;;;;;;;;;17.04;59.45;100738.59;5066786;28;1223;-66
2021/11/26 03:02:31;;;;;;;;;;;;;;;17.04;58.99;100735.91;5070750;28;1371;-69
2021/11/26 03:04:57;;;;;;;;;;;;;;;17.03;58.72;100726.22;5076971;28;1641;-72
2021/11/26 03:07:24;;;;;;;;;;;;;;;17.03;59.43;100731.56;5077380;28;1574;-67
2021/11/26 03:09:51;;;;;;;;;;;;;;;17.01;59.33;100720.16;5077518;28;1563;-73
2021/11/26 03:12:19;;;;;;;;;;;;;;;17.02;59.38;100719.16;5073976;28;1309;-72
2021/11/26 03:14:45;;;;;;;;;;;;;;;17.01;59.19;100722.81;5076046;28;1910;-66
2021/11/26 03:17:12;;;;;;;;;;;;;;;17.00;59.52;100715.75;5077148;28;1566;-66
2021/11/26 03:19:38;;;;;;;;;;;;;;;16.99;59.34;100702.53;5077301;28;1633;-66
2021/11/26 03:22:05;;;;;;;;;;;;;;;16.98;59.23;100701.69;5068651;28;1646;-66
2021/11/26 03:24:32;;;;;;;;;;;;;;;16.96;60.14;100692.94;5077928;28;1064;-72
2021/11/26 03:26:59;;;;;;;;;;;;;;;16.95;60.20;100696.59;5073001;28;1769;-72
2021/11/26 03:29:27;;;;;;;;;;;;;;;16.95;60.04;100704.63;5076561;28;1384;-66
2021/11/26 03:31:53;;;;;;;;;;;;;;;16.95;60.15;100699.28;5076338;28;1427;-73
2021/11/26 03:34:20;;;;;;;;;;;;;;;16.95;60.67;100690.41;5076569;28;1981;-66
2021/11/26 03:36:47;;;;;;;;;;;;;;;16.92;60.01;100694.16;5076985;28;1579;-66
2021/11/26 03:39:13;;;;;;;;;;;;;;;16.90;60.88;100688.94;5077361;28;1011;-65
2021/11/26 03:41:40;;;;;;;;;;;;;;;16.90;60.88;100674.75;5074258;28;1390;-67
2021/11/26 03:44:07;;;;;;;;;;;;;;;16.87;60.35;100683.00;5076432;28;1641;-65
2021/11/26 03:46:35;;;;;;;;;;;;;;;16.88;60.77;100687.38;5076837;28;1602;-72
2021/11/26 03:49:01;;;;;;;;;;;;;;;16.87;60.53;100661.63;5076323;28;1489;-72
2021/11/26 03:51:28;;;;;;;;;;;;;;;16.82;60.85;100658.50;5070643;28;1500;-72
2021/11/26 03:53:55;;;;;;;;;;;;;;;16.85;61.01;100660.91;5063802;28;1898;-72
2021/11/26 03:56:21;;;;;;;;;;;;;;;16.84;61.37;100645.88;5075588;28;1607;-73
2021/11/26 03:58:49;;;;;;;;;;;;;;;16.80;61.33;100644.38;5076283;28;1567;-71
2021/11/26 04:01:16;;;;;;;;;;;;;;;16.82;60.92;100653.16;5076193;28;1328;-65
2021/11/26 04:03:43;;;;;;;;;;;;;;;16.81;61.73;100641.63;5075341;28;1511;-66
2021/11/26 04:06:10;;;;;;;;;;;;;;;16.81;61.17;100635.38;5075454;28;1383;-66
2021/11/26 04:08:37;;;;;;;;;;;;;;;16.78;61.04;100616.97;5076743;28;1619;-65
2021/11/26 04:11:03;;;;;;;;;;;;;;;16.78;61.02;100620.47;5071015;28;1321;-72
2021/11/26 04:13:30;;;;;;;;;;;;;;;16.76;61.93;100617.06;5076348;28;1905;-72
2021/11/26 04:16:02;;;;;;;;;;;;;;;16.75;60.96;100606.50;5076341;28;1436;-72
2021/11/26 04:18:29;;;;;;;;;;;;;;;16.75;61.97;100614.53;5076598;28;1043;-72
2021/11/26 04:20:57;;;;;;;;;;;;;;;16.77;61.83;100629.47;5073987;28;1565;-66
2021/11/26 04:23:23;;;;;;;;;;;;;;;16.76;62.03;100605.56;5065841;28;1611;-66
2021/11/26 04:25:50;;;;;;;;;;;;;;;16.74;61.75;100611.00;5072046;28;1372;-66
2021/11/26 04:28:17;;;;;;;;;;;;;;;16.73;61.84;100595.13;5075610;28;1391;-73
2021/11/26 04:30:43;;;;;;;;;;;;;;;16.73;62.03;100592.44;5076770;28;1063;-66
2021/11/26 04:33:10;;;;;;;;;;;;;;;16.74;61.66;100596.81;5075610;28;1408;-72
2021/11/26 04:35:37;;;;;;;;;;;;;;;16.70;61.88;100612.25;5075768;28;1968;-72
2021/11/26 04:38:05;;;;;;;;;;;;;;;16.68;61.91;100599.00;5064129;28;1789;-72
2021/11/26 04:40:31;;;;;;;;;;;;;;;16.68;61.66;100599.00;5073433;28;1658;-73
2021/11/26 04:42:58;;;;;;;;;;;;;;;16.72;61.68;100601.44;5074930;28;1063;-72
2021/11/26 04:45:24;;;;;;;;;;;;;;;16.77;61.37;100610.78;5072964;28;1566;-73
2021/11/26 04:47:51;;;;;;;;;;;;;;;16.76;61.78;100606.41;5072416;28;1566;-70
2021/11/26 04:50:17;;;;;;;;;;;;;;;16.73;61.43;100595.13;5070190;28;1567;-62
2021/11/26 04:52:44;;;;;;;;;;;;;;;16.72;61.95;100594.28;5036635;28;10865;-71
2021/11/26 04:55:13;;;;;;;;;;;;;;;16.70;62.39;100610.41;5068810;28;1910;-64
2021/11/26 04:57:40;;;;;;;;;;;;;;;16.73;62.48;100595.13;5075159;28;1578;-62
2021/11/26 05:00:07;;;;;;;;;;;;;;;16.71;61.34;100619.25;5075360;28;1500;-64
2021/11/26 05:02:34;;;;;;;;;;;;;;;16.69;61.71;100616.75;5065112;28;1441;-72
2021/11/26 05:05:00;;;;;;;;;;;;;;;16.66;61.79;100606.28;5066068;28;1239;-63
2021/11/26 05:07:27;;;;;;;;;;;;;;;16.64;61.27;100592.22;5064783;28;1691;-72
2021/11/26 05:09:54;;;;;;;;;;;;;;;16.65;62.40;100599.28;5065607;28;1607;-66
2021/11/26 05:12:22;;;;;;;;;;;;;;;16.63;62.55;100574.53;5073084;28;1638;-71
2021/11/26 05:14:50;;;;;;;;;;;;;;;16.59;60.83;100589.09;5060569;28;1985;-64
2021/11/26 05:17:17;;;;;;;;;;;;;;;16.69;61.01;100576.69;5068691;28;1467;-72
2021/11/26 05:19:43;;;;;;;;;;;;;;;16.72;61.12;100572.06;5070825;28;1350;-64
2021/11/26 05:22:10;;;;;;;;;;;;;;;16.67;62.10;100553.72;5062576;28;1704;-71
2021/11/26 05:24:37;;;;;;;;;;;;;;;16.70;62.22;100551.66;5070755;28;1582;-64
2021/11/26 05:27:03;;;;;;;;;;;;;;;16.88;61.51;100556.50;5065004;28;1722;-64
2021/11/26 05:29:31;;;;;;;;;;;;;;;17.10;61.16;100545.72;5073353;28;1445;-65
2021/11/26 05:31:58;;;;;;;;;;;;;;;17.18;60.95;100541.56;5067839;28;1298;-71
2021/11/26 05:34:25;;;;;;;;;;;;;;;17.34;60.82;100552.66;5072712;28;1906;-71
2021/11/26 05:36:51;;;;;;;;;;;;;;;17.46;60.40;100538.25;5065290;28;1235;-71
2021/11/26 05:39:18;;;;;;;;;;;;;;;17.52;60.32;100534.19;5075463;28;973;-71
2021/11/26 05:41:45;;;;;;;;;;;;;;;17.58;60.38;100548.88;5073604;28;1519;-71
2021/11/26 05:44:11;;;;;;;;;;;;;;;17.59;60.34;100529.19;5064826;28;1714;-72
2021/11/26 05:46:40;;;;;;;;;;;;;;;17.62;60.34;100535.09;5069796;28;1441;-71
2021/11/26 05:49:07;;;;;;;;;;;;;;;17.62;60.31;100523.56;5066513;28;1282;-71
2021/11/26 05:51:33;;;;;;;;;;;;;;;17.69;60.31;100522.06;5057978;28;1386;-70
2021/11/26 05:54:00;;;;;;;;;;;;;;;17.68;60.26;100525.72;5073181;28;1906;-70
2021/11/26 05:56:27;;;;;;;;;;;;;;;17.70;60.52;100529.09;5062948;28;1714;-64
2021/11/26 05:58:53;;;;;;;;;;;;;;;17.73;60.70;100523.50;5071294;28;1418;-65
2021/11/26 06:01:20;;;;;;;;;;;;;;;17.78;60.65;100525.75;5071537;28;1579;-68
2021/11/26 06:03:48;;;;;;;;;;;;;;;17.85;60.41;100521.63;5072266;28;1575;-64
2021/11/26 06:06:14;;;;;;;;;;;;;;;17.88;60.53;100515.97;5065827;28;1420;-70
2021/11/26 06:08:41;;;;;;;;;;;;;;;17.93;60.58;100515.59;5069055;28;1749;-64
2021/11/26 06:11:07;;;;;;;;;;;;;;;17.92;60.46;100508.53;5074124;28;1423;-64
2021/11/26 06:13:34;;;;;;;;;;;;;;;17.95;60.50;100494.91;5062515;28;1413;-68
2021/11/26 06:16:01;;;;;;;;;;;;;;;18.03;59.96;100490.56;5072214;28;1913;-64
2021/11/26 06:18:27;;;;;;;;;;;;;;;17.99;60.40;100491.81;5068054;28;1352;-69
2021/11/26 06:20:55;;;;;;;;;;;;;;;18.03;60.25;100495.91;5067836;28;1390;-65
2021/11/26 06:23:22;;;;;;;;;;;;;;;18.03;60.73;100493.22;5067178;28;1589;-68
2021/11/26 06:25:48;;;;;;;;;;;;;;;18.15;60.80;100509.19;5073827;28;1405;-68
2021/11/26 06:28:15;;;;;;;;;;;;;;;18.07;60.50;100501.84;5072655;28;1273;-66
2021/11/26 06:30:42;;;;;;;;;;;;;;;18.03;60.07;100500.41;5072552;28;1258;-73
2021/11/26 06:33:09;;;;;;;;;;;;;;;17.98;60.18;100494.63;5069881;28;1741;-60
2021/11/26 06:35:36;;;;;;;;;;;;;;;18.01;60.04;100511.25;5075509;28;1910;-60
2021/11/26 06:38:04;;;;;;;;;;;;;;;18.17;59.62;100502.72;5077511;28;1623;-61
2021/11/26 06:40:31;;;;;;;;;;;;;;;18.22;59.29;100521.91;5067656;28;1433;-64
2021/11/26 06:42:58;;;;;;;;;;;;;;;18.19;58.75;100521.31;5076930;28;1299;-70
2021/11/26 06:45:24;;;;;;;;;;;;;;;18.28;59.08;100516.00;5072367;28;1594;-64
2021/11/26 06:47:51;;;;;;;;;;;;;;;18.33;58.87;100512.91;5076525;28;1702;-70
2021/11/26 06:50:19;;;;;;;;;;;;;;;18.35;59.53;100510.09;5073386;28;1498;-71
2021/11/26 06:52:46;;;;;;;;;;;;;;;18.27;59.01;100518.81;5072436;28;1350;-61
2021/11/26 06:55:15;;;;;;;;;;;;;;;18.22;59.68;100503.16;5068997;28;1910;-65
2021/11/26 06:57:42;;;;;;;;;;;;;;;18.29;59.76;100490.91;5077954;28;1820;-64
2021/11/26 07:00:09;;;;;;;;;;;;;;;18.23;59.87;100482.59;5074909;28;1749;-60
2021/11/26 07:02:36;;;;;;;;;;;;;;;18.23;59.70;100491.47;5076820;28;1338;-71
2021/11/26 07:05:03;;;;;;;;;;;;;;;18.24;60.13;100479.78;5076846;28;1322;-71
2021/11/26 07:07:30;;;;;;;;;;;;;;;18.24;59.81;100471.75;5073828;28;1770;-71
2021/11/26 07:09:56;;;;;;;;;;;;;;;18.22;60.10;100452.31;5075478;28;1699;-65
2021/11/26 07:12:24;;;;;;;;;;;;;;;18.23;59.90;100464.69;5071760;28;1368;-72
2021/11/26 07:14:51;;;;;;;;;;;;;;;18.26;59.72;100443.03;5069058;28;1980;-72
2021/11/26 07:17:18;;;;;;;;;;;;;;;18.36;59.82;100447.53;5066495;28;1346;-65
2021/11/26 07:19:46;;;;;;;;;;;;;;;18.39;59.87;100426.69;5064172;28;1633;-74
2021/11/26 07:22:13;;;;;;;;;;;;;;;18.40;60.05;100423.03;5066212;28;1493;-64
2021/11/26 07:24:39;;;;;;;;;;;;;;;18.40;59.66;100395.38;5063702;28;1235;-73
2021/11/26 07:27:06;;;;;;;;;;;;;;;18.49;59.97;100373.97;5070999;28;1649;-76
2021/11/26 07:29:34;;;;;;;;;;;;;;;18.57;59.52;100365.22;5074086;28;1599;-64
2021/11/26 07:32:01;;;;;;;;;;;;;;;18.51;59.62;100354.25;5071371;28;1374;-76
2021/11/26 07:34:28;;;;;;;;;;;;;;;18.55;59.88;100355.66;5075710;28;1922;-71
2021/11/26 07:36:55;;;;;;;;;;;;;;;18.42;59.72;100350.59;5076840;28;1548;-64
2021/11/26 07:39:22;;;;;;;;;;;;;;;18.27;57.14;100340.31;5077991;28;1037;-64
2021/11/26 07:41:50;;;;;;;;;;;;;;;18.46;56.33;100335.91;5069615;28;1515;-81
2021/11/26 07:44:17;;;;;;;;;;;;;;;18.47;57.40;100333.09;5065081;28;1357;-64
2021/11/26 07:46:45;;;;;;;;;;;;;;;18.60;56.61;100310.53;5077123;28;1635;-76
2021/11/26 07:49:11;;;;;;;;;;;;;;;18.71;57.37;100306.88;5077100;28;1460;-77
2021/11/26 07:51:38;;;;;;;;;;;;;;;18.78;57.90;100298.09;5074470;28;1389;-67
2021/11/26 07:54:04;;;;;;;;;;;;;;;18.74;57.80;100303.88;5071814;28;1708;-68
2021/11/26 07:56:31;;;;;;;;;;;;;;;18.80;57.56;100306.00;5076105;28;1971;-68
2021/11/26 07:58:58;;;;;;;;;;;;;;;18.78;58.25;100303.47;5066718;28;1714;-67
2021/11/26 08:01:24;;;;;;;;;;;;;;;18.72;58.41;100300.50;5076411;28;1391;-72
2021/11/26 08:03:52;;;;;;;;;;;;;;;18.83;57.76;100313.78;5064645;28;1481;-71
2021/11/26 08:06:19;;;;;;;;;;;;;;;18.81;58.02;100316.59;5068000;28;1571;-71
2021/11/26 08:08:45;;;;;;;;;;;;;;;18.87;58.09;100323.19;5076538;28;1567;-63
2021/11/26 08:11:12;;;;;;;;;;;;;;;18.94;58.38;100329.69;5075230;28;1622;-62
2021/11/26 08:13:38;;;;;;;;;;;;;;;18.93;58.91;100330.66;5066878;28;1299;-62
2021/11/26 08:16:07;;;;;;;;;;;;;;;19.17;57.88;100337.34;5071650;28;1972;-72
2021/11/26 08:18:34;;;;;;;;;;;;;;;19.24;57.87;100335.78;5064449;28;1214;-63
2021/11/26 08:21:02;;;;;;;;;;;;;;;19.22;58.18;100324.38;5075328;28;1699;-64
2021/11/26 08:23:28;;;;;;;;;;;;;;;19.11;58.60;100313.81;5075799;28;1678;-65
2021/11/26 08:25:55;;;;;;;;;;;;;;;19.07;57.65;100316.78;5074594;28;1430;-63
2021/11/26 08:28:22;;;;;;;;;;;;;;;19.14;58.34;100313.50;5075532;28;1571;-63
2021/11/26 08:30:49;;;;;;;;;;;;;;;19.13;58.03;100315.34;5063339;28;1245;-64
2021/11/26 08:33:15;;;;;;;;;;;;;;;19.08;57.78;100286.31;5075833;28;1044;-65
2021/11/26 08:35:42;;;;;;;;;;;;;;;19.17;58.79;100273.84;5075506;28;1963;-73
2021/11/26 08:38:10;;;;;;;;;;;;;;;19.20;57.88;100264.66;5075967;28;1778;-63
2021/11/26 08:40:38;;;;;;;;;;;;;;;19.13;58.87;100247.50;5074451;28;1345;-74
2021/11/26 08:43:04;;;;;;;;;;;;;;;19.07;58.44;100243.59;5076778;28;1061;-70
2021/11/26 08:45:33;;;;;;;;;;;;;;;19.01;58.50;100210.19;5068433;28;1459;-77
2021/11/26 08:48:00;;;;;;;;;;;;;;;19.11;59.04;100206.63;5073681;28;1706;-71
2021/11/26 08:50:26;;;;;;;;;;;;;;;19.04;59.22;100195.66;5075272;28;1714;-72
2021/11/26 08:52:53;;;;;;;;;;;;;;;19.03;59.69;100169.84;5069340;28;1535;-63
2021/11/26 08:55:21;;;;;;;;;;;;;;;19.01;58.98;100151.22;5075841;28;1903;-64
2021/11/26 08:57:52;;;;;;;;;;;;;;;19.04;59.00;100158.16;5079765;28;1149;-75
2021/11/26 09:00:21;;;;;;;;;;;;;;;19.05;59.48;100146.41;5077660;28;1346;-75
2021/11/26 09:02:49;;;;;;;;;;;;;;;19.06;59.50;100132.03;5075386;28;1638;-79
2021/11/26 09:05:16;;;;;;;;;;;;;;;18.99;59.44;100150.53;5072613;28;1419;-72
2021/11/26 09:07:45;;;;;;;;;;;;;;;18.98;59.89;100164.06;5076011;28;1048;-77
2021/11/26 09:10:13;;;;;;;;;;;;;;;18.99;59.87;100161.25;5075511;28;1500;-62
2021/11/26 09:12:41;;;;;;;;;;;;;;;19.01;59.38;100159.28;5070116;28;1612;-62
2021/11/26 09:15:07;;;;;;;;;;;;;;;18.98;60.23;100143.50;5073602;28;1988;-62
2021/11/26 09:17:34;;;;;;;;;;;;;;;18.96;60.37;100155.34;5073431;28;1570;-62
2021/11/26 09:20:01;;;;;;;;;;;;;;;18.96;60.48;100169.59;5067318;28;1443;-65
2021/11/26 09:22:30;;;;;;;;;;;;;;;18.96;59.90;100176.78;5068384;28;1426;-62
2021/11/26 09:24:56;;;;;;;;;;;;;;;19.00;60.24;100178.16;5066550;28;1263;-76
2021/11/26 09:27:23;;;;;;;;;;;;;;;18.98;59.66;100170.31;5072099;28;1734;-77
2021/11/26 09:29:51;;;;;;;;;;;;;;;19.00;60.65;100168.31;5074401;28;1312;-61
2021/11/26 09:32:17;;;;;;;;;;;;;;;18.96;60.32;100150.00;5068288;28;1480;-73
2021/11/26 09:34:46;;;;;;;;;;;;;;;18.98;60.37;100164.94;5067163;28;1461;-79
2021/11/26 09:37:13;;;;;;;;;;;;;;;18.96;60.45;100161.56;5075257;28;1973;-76
2021/11/26 09:39:39;;;;;;;;;;;;;;;18.93;60.35;100150.31;5076309;28;1035;-61
2021/11/26 09:42:06;;;;;;;;;;;;;;;18.94;61.22;100130.53;5075521;28;1710;-79
2021/11/26 09:44:34;;;;;;;;;;;;;;;18.99;60.58;100134.47;5065123;28;1542;-65
2021/11/26 09:47:03;;;;;;;;;;;;;;;18.95;61.12;100100.94;5069692;28;1361;-79
2021/11/26 09:49:30;;;;;;;;;;;;;;;18.93;60.43;100097.56;5067203;28;1293;-64
2021/11/26 09:51:56;;;;;;;;;;;;;;;18.93;61.18;100076.13;5074094;28;1452;-63
2021/11/26 09:54:23;;;;;;;;;;;;;;;18.95;60.58;100073.31;5074821;28;982;-61
2021/11/26 09:56:50;;;;;;;;;;;;;;;18.98;60.96;100065.81;5073920;28;1906;-76
2021/11/26 09:59:18;;;;;;;;;;;;;;;19.03;61.26;100047.41;5075825;28;1697;-80
2021/11/26 10:01:45;;;;;;;;;;;;;;;18.97;62.27;100031.13;5069014;28;1631;-61
2021/11/26 10:04:20;;;;;;;;;;;;;;;19.00;61.62;100007.53;5071471;28;1519;-60
2021/11/26 10:06:47;;;;;;;;;;;;;;;18.96;61.25;100016.88;5075142;28;1582;-76
2021/11/26 10:09:14;;;;;;;;;;;;;;;18.97;62.15;100002.47;5074404;28;1467;-74
2021/11/26 10:11:45;;;;;;;;;;;;;;;19.08;61.22;99996.06;5074606;28;1658;-62
2021/11/26 10:14:19;;;;;;;;;;;;;;;18.96;60.95;99981.19;5063529;28;1578;-71
2021/11/26 10:16:48;;;;;;;;;;;;;;;18.92;62.21;99972.66;5060881;28;1976;-68
2021/11/26 10:19:15;;;;;;;;;;;;;;;18.92;61.51;99985.19;5071194;28;1279;-70
2021/11/26 10:21:43;;;;;;;;;;;;;;;18.88;61.60;99966.75;5074828;28;985;-59
2021/11/26 10:24:18;;;;;;;;;;;;;;;18.91;61.44;99954.88;5072667;28;1120;-71
2021/11/26 10:26:54;;;;;;;;;;;;;;;18.88;62.45;99941.81;5073619;28;1587;-63
2021/11/26 10:29:31;;;;;;;;;;;;;;;18.91;61.23;99917.38;5068458;28;1433;-75
2021/11/26 10:32:09;;;;;;;;;;;;;;;18.92;61.11;99924.44;5069053;28;1393;-74
2021/11/26 10:34:36;;;;;;;;;;;;;;;18.92;62.23;99923.56;5071482;28;1634;-75
2021/11/26 10:37:05;;;;;;;;;;;;;;;18.95;62.15;99908.03;5063109;28;1905;-75
2021/11/26 10:39:34;;;;;;;;;;;;;;;18.97;62.10;99899.84;5068081;28;1425;-69
2021/11/26 10:42:01;;;;;;;;;;;;;;;18.94;62.32;99895.63;5073195;28;1835;-74
2021/11/26 10:44:37;;;;;;;;;;;;;;;19.00;61.34;99916.44;5071684;28;1526;-62
2021/11/26 10:47:11;;;;;;;;;;;;;;;18.96;61.62;99898.13;5068413;28;1414;-69
2021/11/26 10:58:14;;;;;;;;;;;;;;;18.92;61.59;99859.25;5065002;28;1389;-62
2021/11/26 11:00:40;;;;;;;;;;;;;;;18.94;61.74;99857.28;5064313;28;1354;-70
2021/11/26 11:03:07;;;;;;;;;;;;;;;18.96;61.71;99849.91;5064435;28;1452;-70
2021/11/26 11:05:35;;;;;;;;;;;;;;;19.01;62.29;99851.13;5074040;28;1489;-62
2021/11/26 11:08:04;;;;;;;;;;;;;;;19.01;62.33;99843.09;5076687;28;1666;-62
2021/11/26 11:10:32;;;;;;;;;;;;;;;19.07;62.52;99847.81;5064554;28;1500;-75
2021/11/26 11:13:01;;;;;;;;;;;;;;;19.08;62.65;99806.63;5071111;28;1163;-78
2021/11/26 11:15:27;;;;;;;;;;;;;;;19.08;62.37;99803.94;5067736;28;1752;-62
2021/11/26 11:17:54;;;;;;;;;;;;;;;18.98;62.81;99805.06;5061868;28;1969;-62
2021/11/26 11:20:23;;;;;;;;;;;;;;;19.05;62.87;99790.88;5074034;28;1661;-74
2021/11/26 11:22:50;;;;;;;;;;;;;;;18.99;63.02;99770.06;5063880;28;1325;-61
2021/11/26 11:25:24;;;;;;;;;;;;;;;19.01;62.85;99767.22;5071500;28;1464;-70
2021/11/26 11:27:51;;;;;;;;;;;;;;;19.05;62.37;99764.06;5067464;28;1284;-72
2021/11/26 11:30:18;;;;;;;;;;;;;;;19.01;62.52;99773.44;5067893;28;1722;-61
2021/11/26 11:32:44;;;;;;;;;;;;;;;18.96;62.32;99759.69;5068538;28;1488;-77
2021/11/26 11:35:12;;;;;;;;;;;;;;;19.15;60.94;99763.13;5071266;28;1372;-77
2021/11/26 11:37:39;;;;;;;;;;;;;;;18.92;61.40;99752.97;5077327;28;1979;-60
2021/11/26 11:40:08;;;;;;;;;;;;;;;18.82;61.45;99755.75;5074244;28;1578;-70
2021/11/26 11:42:38;;;;;;;;;;;;;;;18.89;61.93;99769.34;5076307;28;1766;-76
2021/11/26 11:45:08;;;;;;;;;;;;;;;18.85;61.35;99747.38;5070992;28;1598;-60
2021/11/26 11:47:36;;;;;;;;;;;;;;;18.86;62.25;99745.53;5076116;28;1322;-62
2021/11/26 11:50:07;;;;;;;;;;;;;;;18.67;62.10;99734.03;5070022;28;1421;-71
2021/11/26 11:52:45;;;;;;;;;;;;;;;18.44;63.21;99722.16;5071555;28;1461;-69
2021/11/26 11:55:19;;;;;;;;;;;;;;;18.27;61.26;99705.19;5056603;28;1298;-71
2021/11/26 11:57:47;;;;;;;;;;;;;;;18.12;59.60;99704.06;5065503;28;1972;-71
2021/11/26 12:00:16;;;;;;;;;;;;;;;18.18;61.42;99698.91;5066168;28;1664;-63
2021/11/26 12:02:44;;;;;;;;;;;;;;;18.23;62.28;99691.25;5058435;28;1392;-71
2021/11/26 12:05:19;;;;;;;;;;;;;;;18.24;62.44;99714.38;5056498;28;1048;-69
2021/11/26 12:07:45;;;;;;;;;;;;;;;18.18;63.03;99739.03;5056574;28;996;-63
2021/11/26 12:10:15;;;;;;;;;;;;;;;18.07;63.19;99766.06;5056564;28;1257;-64
2021/11/26 12:12:45;;;;;;;;;;;;;;;18.03;63.50;99748.63;5056483;28;1020;-71
2021/11/26 12:15:22;;;;;;;;;;;;;;;18.01;63.29;99739.94;5055980;28;1115;-72
2021/11/26 12:17:56;;;;;;;;;;;;;;;17.92;63.80;99709.56;5056709;28;1980;-71
2021/11/26 12:20:25;;;;;;;;;;;;;;;17.85;63.81;99701.34;5056573;28;976;-63
2021/11/26 12:22:54;;;;;;;;;;;;;;;17.89;63.73;99686.66;5056496;28;1036;-72
2021/11/26 12:25:31;;;;;;;;;;;;;;;17.86;63.68;99686.97;5056266;28;1008;-63
2021/11/26 12:27:58;;;;;;;;;;;;;;;17.81;63.93;99664.34;5056554;28;1082;-72
2021/11/26 12:30:26;;;;;;;;;;;;;;;17.77;63.93;99621.03;5056017;28;1052;-72
2021/11/26 12:32:53;;;;;;;;;;;;;;;17.71;64.09;99610.94;5056114;28;1044;-63
2021/11/26 12:35:20;;;;;;;;;;;;;;;17.70;64.27;99634.16;5056598;28;941;-63
2021/11/26 12:37:48;;;;;;;;;;;;;;;17.64;64.21;99644.63;5056110;28;1902;-72
2021/11/26 12:40:16;;;;;;;;;;;;;;;17.65;64.31;99684.59;5056304;28;941;-71
2021/11/26 12:42:42;;;;;;;;;;;;;;;17.61;64.29;99677.03;5055731;28;1123;-71
2021/11/26 12:45:11;;;;;;;;;;;;;;;17.56;64.02;99657.94;5056171;28;972;-72
2021/11/26 12:47:40;;;;;;;;;;;;;;;17.57;64.07;99670.31;5055794;28;1056;-72
2021/11/26 12:52:52;;;;;;;;;;;;;;;17.52;63.60;99675.25;5056033;28;595;-72
2021/11/26 12:55:18;;;;;;;;;;;;;;;17.52;63.89;99688.63;5056021;28;973;-72
2021/11/26 12:57:51;;;;;;;;;;;;;;;17.47;64.21;99671.22;5055860;28;1975;-64
2021/11/26 13:00:17;;;;;;;;;;;;;;;17.45;63.97;99673.22;5055537;28;1056;-63
2021/11/26 13:02:45;;;;;;;;;;;;;;;17.44;63.90;99682.19;5055309;28;1398;-71